createdAt,value
2019-06-15T19:12:47.620Z,12.73
2019-06-15T19:15:17.088Z,8.70
2019-06-15T19:17:46.477Z,11.52
2019-06-15T19:20:16.871Z,10.05
2019-06-15T19:22:47.499Z,8.73
2019-06-15T19:25:16.202Z,13.25
2019-06-15T19:27:44.158Z,8.38
2019-06-15T19:30:13.737Z,11.07
2019-06-15T19:32:42.906Z,12.98
2019-06-15T19:35:12.443Z,11.35
2019-06-15T19:37:41.916Z,10.15
2019-06-15T19:40:11.254Z,9.45
2019-06-15T19:42:40.701Z,9.40
2019-06-15T19:45:10.729Z,9.35
2019-06-15T19:47:39.940Z,9.20
2019-06-15T19:50:10.083Z,10.07
2019-06-15T19:52:38.214Z,8.32
2019-06-15T19:55:07.683Z,8.43
2019-06-15T19:57:37.158Z,13.23
2019-06-15T20:00:07.536Z,8.43
2019-06-15T20:02:36.775Z,8.88
2019-06-15T20:05:06.954Z,13.48
2019-06-15T20:07:36.888Z,12.00
2019-06-15T20:10:07.393Z,10.85
2019-06-15T20:12:37.439Z,12.02
2019-06-15T20:15:06.544Z,9.68
2019-06-15T20:17:36.752Z,11.85
2019-06-15T20:20:06.991Z,8.25
2019-06-15T20:22:37.357Z,17.50
2019-06-15T20:25:06.652Z,11.02
2019-06-15T20:27:35.513Z,8.98
2019-06-15T20:30:06.302Z,9.60
2019-06-15T20:32:33.566Z,10.65
2019-06-15T20:35:16.185Z,10.15
2019-06-15T20:37:32.807Z,13.25
2019-06-15T20:40:02.147Z,12.63
2019-06-15T20:42:31.626Z,13.48
2019-06-15T20:45:00.807Z,13.25
2019-06-15T20:47:30.309Z,18.40
2019-06-15T20:50:00.020Z,14.98
2019-06-15T20:52:29.511Z,16.52
2019-06-15T20:54:58.938Z,12.27
2019-06-15T20:57:28.139Z,14.15
2019-06-15T20:59:57.559Z,14.50
2019-06-15T21:02:27.149Z,8.85
2019-06-15T21:04:56.576Z,9.68
2019-06-15T21:07:26.924Z,10.00
2019-06-15T21:09:57.270Z,11.18
2019-06-15T21:12:26.868Z,12.77
2019-06-15T21:14:56.078Z,12.10
2019-06-15T21:17:23.459Z,10.68
2019-06-15T21:19:52.923Z,10.05
2019-06-15T21:22:22.498Z,10.52
2019-06-15T21:24:54.653Z,10.10
2019-06-15T21:27:21.157Z,9.73
2019-06-15T21:29:50.517Z,10.40
2019-06-15T21:32:20.038Z,11.10
2019-06-15T21:34:49.833Z,9.15
2019-06-15T21:37:19.261Z,24.70
2019-06-15T21:39:48.786Z,13.55
2019-06-15T21:42:18.196Z,11.65
2019-06-15T21:44:47.349Z,10.95
2019-06-15T21:47:16.751Z,11.63
2019-06-15T21:49:46.869Z,11.82
2019-06-15T21:52:16.656Z,19.40
2019-06-15T21:54:46.825Z,25.05
2019-06-15T21:57:16.032Z,18.30
2019-06-15T21:59:43.706Z,17.90
2019-06-15T22:02:13.201Z,16.05
2019-06-15T22:04:42.328Z,13.23
2019-06-15T22:07:11.810Z,17.05
2019-06-15T22:09:40.962Z,16.17
2019-06-15T22:12:10.234Z,16.10
2019-06-15T22:14:39.407Z,13.95
2019-06-15T22:17:08.827Z,14.65
2019-06-15T22:19:38.624Z,14.63
2019-06-15T22:22:08.073Z,9.07
2019-06-15T22:24:37.251Z,11.75
2019-06-15T22:27:06.812Z,16.47
2019-06-15T22:29:36.620Z,11.27
2019-06-15T22:32:06.842Z,13.98
2019-06-15T22:34:36.281Z,11.25
2019-06-15T22:37:06.938Z,14.07
2019-06-15T22:39:33.727Z,13.23
2019-06-15T22:42:06.688Z,12.52
2019-06-15T22:44:33.644Z,16.33
2019-06-15T22:47:03.613Z,12.25
2019-06-15T22:49:35.880Z,11.90
2019-06-15T22:52:03.321Z,12.18
2019-06-15T22:54:32.524Z,12.85
2019-06-15T22:57:02.005Z,21.17
2019-06-15T22:59:30.841Z,20.05
2019-06-15T23:01:59.997Z,17.77
2019-06-15T23:04:29.522Z,18.10
2019-06-15T23:06:59.119Z,16.83
2019-06-15T23:09:28.243Z,18.62
2019-06-15T23:11:57.639Z,19.35
2019-06-15T23:14:27.073Z,17.30
2019-06-15T23:16:56.871Z,16.45
2019-06-15T23:19:26.287Z,14.52
2019-06-15T23:21:57.185Z,16.73
2019-06-15T23:24:27.246Z,16.95
2019-06-15T23:26:56.948Z,16.33
2019-06-15T23:29:23.858Z,14.25
2019-06-15T23:31:53.873Z,15.13
2019-06-15T23:34:23.415Z,16.23
2019-06-15T23:36:56.980Z,16.80
2019-06-15T23:39:22.040Z,18.25
2019-06-15T23:41:51.274Z,17.75
2019-06-15T23:44:20.756Z,15.48
2019-06-15T23:46:50.125Z,18.92
2019-06-15T23:49:19.578Z,18.35
2019-06-15T23:51:49.208Z,33.38
2019-06-15T23:54:18.496Z,33.97
2019-06-15T23:56:47.388Z,37.15
2019-06-15T23:59:18.017Z,37.85
